sensor_id;sensor_type;location;lat;lon;timestamp;P1;durP1;ratioP1;P2;durP2;ratioP2
48574;SDS011;34352;51.084;3.712;2022-09-02T00:00:56;7.72;;;4.32;;
48574;SDS011;34352;51.084;3.712;2022-09-02T00:03:25;7.55;;;4.63;;
48574;SDS011;34352;51.084;3.712;2022-09-02T00:05:59;8.18;;;4.93;;
48574;SDS011;34352;51.084;3.712;2022-09-02T00:08:25;10.23;;;4.90;;
48574;SDS011;34352;51.084;3.712;2022-09-02T00:10:51;11.43;;;4.55;;
48574;SDS011;34352;51.084;3.712;2022-09-02T00:13:17;9.35;;;3.92;;
48574;SDS011;34352;51.084;3.712;2022-09-02T00:15:44;8.63;;;3.85;;
48574;SDS011;34352;51.084;3.712;2022-09-02T00:18:11;7.10;;;4.40;;
48574;SDS011;34352;51.084;3.712;2022-09-02T00:20:39;9.02;;;4.43;;
48574;SDS011;34352;51.084;3.712;2022-09-02T00:23:06;7.43;;;4.20;;
48574;SDS011;34352;51.084;3.712;2022-09-02T00:25:33;7.07;;;4.07;;
48574;SDS011;34352;51.084;3.712;2022-09-02T00:27:59;10.13;;;4.82;;
48574;SDS011;34352;51.084;3.712;2022-09-02T00:30:25;8.13;;;4.18;;
48574;SDS011;34352;51.084;3.712;2022-09-02T00:32:52;10.00;;;5.20;;
48574;SDS011;34352;51.084;3.712;2022-09-02T00:35:18;7.45;;;4.80;;
48574;SDS011;34352;51.084;3.712;2022-09-02T00:37:44;14.10;;;4.93;;
48574;SDS011;34352;51.084;3.712;2022-09-02T00:40:09;7.47;;;4.88;;
48574;SDS011;34352;51.084;3.712;2022-09-02T00:42:36;15.32;;;5.18;;
48574;SDS011;34352;51.084;3.712;2022-09-02T00:45:03;9.77;;;4.93;;
48574;SDS011;34352;51.084;3.712;2022-09-02T00:47:31;10.05;;;5.35;;
48574;SDS011;34352;51.084;3.712;2022-09-02T00:49:57;10.75;;;5.18;;
48574;SDS011;34352;51.084;3.712;2022-09-02T00:52:28;9.25;;;5.78;;
48574;SDS011;34352;51.084;3.712;2022-09-02T00:55:03;9.40;;;5.15;;
48574;SDS011;34352;51.084;3.712;2022-09-02T00:57:32;10.50;;;5.75;;
48574;SDS011;34352;51.084;3.712;2022-09-02T01:02:43;12.00;;;5.20;;
48574;SDS011;34352;51.084;3.712;2022-09-02T01:05:13;11.00;;;5.65;;
48574;SDS011;34352;51.084;3.712;2022-09-02T01:07:41;11.13;;;5.82;;
48574;SDS011;34352;51.084;3.712;2022-09-02T01:10:10;11.20;;;5.82;;
48574;SDS011;34352;51.084;3.712;2022-09-02T01:12:38;14.27;;;5.72;;
48574;SDS011;34352;51.084;3.712;2022-09-02T01:15:06;9.80;;;6.18;;
48574;SDS011;34352;51.084;3.712;2022-09-02T01:17:33;10.40;;;5.57;;
48574;SDS011;34352;51.084;3.712;2022-09-02T01:20:03;8.40;;;5.60;;
48574;SDS011;34352;51.084;3.712;2022-09-02T01:22:32;10.55;;;5.70;;
48574;SDS011;34352;51.084;3.712;2022-09-02T01:25:03;9.90;;;5.75;;
48574;SDS011;34352;51.084;3.712;2022-09-02T01:27:31;8.73;;;6.03;;
48574;SDS011;34352;51.084;3.712;2022-09-02T01:29:58;11.15;;;6.00;;
48574;SDS011;34352;51.084;3.712;2022-09-02T01:32:25;10.15;;;6.18;;
48574;SDS011;34352;51.084;3.712;2022-09-02T01:34:54;11.63;;;5.75;;
48574;SDS011;34352;51.084;3.712;2022-09-02T01:37:20;11.85;;;6.00;;
48574;SDS011;34352;51.084;3.712;2022-09-02T01:39:46;9.27;;;5.97;;
48574;SDS011;34352;51.084;3.712;2022-09-02T01:42:13;13.63;;;5.97;;
48574;SDS011;34352;51.084;3.712;2022-09-02T01:44:39;12.43;;;6.20;;
48574;SDS011;34352;51.084;3.712;2022-09-02T01:47:11;10.90;;;6.25;;
48574;SDS011;34352;51.084;3.712;2022-09-02T01:49:38;8.90;;;6.15;;
48574;SDS011;34352;51.084;3.712;2022-09-02T01:52:03;10.10;;;6.78;;
48574;SDS011;34352;51.084;3.712;2022-09-02T01:54:29;10.27;;;6.63;;
48574;SDS011;34352;51.084;3.712;2022-09-02T01:56:55;18.23;;;6.70;;
48574;SDS011;34352;51.084;3.712;2022-09-02T01:59:21;15.02;;;6.45;;
48574;SDS011;34352;51.084;3.712;2022-09-02T02:01:47;10.63;;;6.22;;
48574;SDS011;34352;51.084;3.712;2022-09-02T02:04:12;12.45;;;6.63;;
48574;SDS011;34352;51.084;3.712;2022-09-02T02:06:39;14.25;;;6.30;;
48574;SDS011;34352;51.084;3.712;2022-09-02T02:09:06;10.30;;;6.10;;
48574;SDS011;34352;51.084;3.712;2022-09-02T02:11:33;22.08;;;7.10;;
48574;SDS011;34352;51.084;3.712;2022-09-02T02:13:58;9.95;;;6.47;;
48574;SDS011;34352;51.084;3.712;2022-09-02T02:16:24;10.23;;;6.18;;
48574;SDS011;34352;51.084;3.712;2022-09-02T02:18:52;12.15;;;6.20;;
48574;SDS011;34352;51.084;3.712;2022-09-02T02:21:17;10.32;;;6.15;;
48574;SDS011;34352;51.084;3.712;2022-09-02T02:23:43;9.00;;;6.55;;
48574;SDS011;34352;51.084;3.712;2022-09-02T02:26:09;13.82;;;7.07;;
48574;SDS011;34352;51.084;3.712;2022-09-02T02:28:35;12.75;;;7.05;;
48574;SDS011;34352;51.084;3.712;2022-09-02T02:31:01;11.30;;;6.63;;
48574;SDS011;34352;51.084;3.712;2022-09-02T02:33:26;9.60;;;6.30;;
48574;SDS011;34352;51.084;3.712;2022-09-02T02:35:53;10.35;;;6.57;;
48574;SDS011;34352;51.084;3.712;2022-09-02T02:38:19;10.48;;;6.30;;
48574;SDS011;34352;51.084;3.712;2022-09-02T02:40:45;10.65;;;6.40;;
48574;SDS011;34352;51.084;3.712;2022-09-02T02:43:12;8.88;;;6.47;;
48574;SDS011;34352;51.084;3.712;2022-09-02T02:45:38;10.43;;;6.65;;
48574;SDS011;34352;51.084;3.712;2022-09-02T02:48:04;14.00;;;7.00;;
48574;SDS011;34352;51.084;3.712;2022-09-02T02:50:29;11.43;;;7.07;;
48574;SDS011;34352;51.084;3.712;2022-09-02T02:52:55;12.48;;;7.20;;
48574;SDS011;34352;51.084;3.712;2022-09-02T02:55:21;8.30;;;6.18;;
48574;SDS011;34352;51.084;3.712;2022-09-02T02:57:48;12.60;;;7.68;;
48574;SDS011;34352;51.084;3.712;2022-09-02T03:00:16;12.77;;;6.90;;
48574;SDS011;34352;51.084;3.712;2022-09-02T03:02:44;14.30;;;7.25;;
48574;SDS011;34352;51.084;3.712;2022-09-02T03:05:10;11.45;;;7.10;;
48574;SDS011;34352;51.084;3.712;2022-09-02T03:07:37;11.02;;;7.40;;
48574;SDS011;34352;51.084;3.712;2022-09-02T03:10:03;16.17;;;7.32;;
48574;SDS011;34352;51.084;3.712;2022-09-02T03:12:31;13.88;;;7.72;;
48574;SDS011;34352;51.084;3.712;2022-09-02T03:14:58;10.98;;;7.85;;
48574;SDS011;34352;51.084;3.712;2022-09-02T03:17:24;16.88;;;8.00;;
48574;SDS011;34352;51.084;3.712;2022-09-02T03:19:49;17.25;;;8.05;;
48574;SDS011;34352;51.084;3.712;2022-09-02T03:22:16;9.68;;;7.15;;
48574;SDS011;34352;51.084;3.712;2022-09-02T03:24:41;12.90;;;7.20;;
48574;SDS011;34352;51.084;3.712;2022-09-02T03:27:07;10.68;;;7.80;;
48574;SDS011;34352;51.084;3.712;2022-09-02T03:29:33;17.63;;;7.45;;
48574;SDS011;34352;51.084;3.712;2022-09-02T03:31:59;11.82;;;7.60;;
48574;SDS011;34352;51.084;3.712;2022-09-02T03:34:25;12.32;;;7.80;;
48574;SDS011;34352;51.084;3.712;2022-09-02T03:36:50;11.60;;;8.13;;
48574;SDS011;34352;51.084;3.712;2022-09-02T03:39:16;12.15;;;7.85;;
48574;SDS011;34352;51.084;3.712;2022-09-02T03:41:42;12.90;;;8.18;;
48574;SDS011;34352;51.084;3.712;2022-09-02T03:44:07;10.07;;;7.53;;
48574;SDS011;34352;51.084;3.712;2022-09-02T03:46:34;9.35;;;8.13;;
48574;SDS011;34352;51.084;3.712;2022-09-02T03:49:00;14.10;;;8.02;;
48574;SDS011;34352;51.084;3.712;2022-09-02T03:51:26;16.73;;;8.45;;
48574;SDS011;34352;51.084;3.712;2022-09-02T03:53:52;13.57;;;8.43;;
48574;SDS011;34352;51.084;3.712;2022-09-02T03:56:18;14.23;;;8.75;;
48574;SDS011;34352;51.084;3.712;2022-09-02T03:58:46;11.65;;;8.27;;
48574;SDS011;34352;51.084;3.712;2022-09-02T04:01:18;13.30;;;8.40;;
48574;SDS011;34352;51.084;3.712;2022-09-02T04:03:47;15.88;;;8.95;;
48574;SDS011;34352;51.084;3.712;2022-09-02T04:06:13;11.80;;;9.18;;
48574;SDS011;34352;51.084;3.712;2022-09-02T04:08:41;15.55;;;8.43;;
48574;SDS011;34352;51.084;3.712;2022-09-02T04:11:13;13.70;;;8.45;;
48574;SDS011;34352;51.084;3.712;2022-09-02T04:13:42;13.93;;;9.20;;
48574;SDS011;34352;51.084;3.712;2022-09-02T04:16:10;16.95;;;9.25;;
48574;SDS011;34352;51.084;3.712;2022-09-02T04:18:37;20.38;;;8.43;;
48574;SDS011;34352;51.084;3.712;2022-09-02T04:21:03;10.13;;;8.50;;
48574;SDS011;34352;51.084;3.712;2022-09-02T04:23:30;17.58;;;9.07;;
48574;SDS011;34352;51.084;3.712;2022-09-02T04:25:57;10.52;;;8.30;;
48574;SDS011;34352;51.084;3.712;2022-09-02T04:28:23;15.30;;;9.30;;
48574;SDS011;34352;51.084;3.712;2022-09-02T04:30:49;15.10;;;9.65;;
48574;SDS011;34352;51.084;3.712;2022-09-02T04:33:15;14.73;;;9.10;;
48574;SDS011;34352;51.084;3.712;2022-09-02T04:35:42;13.43;;;9.07;;
48574;SDS011;34352;51.084;3.712;2022-09-02T04:38:09;15.68;;;8.65;;
48574;SDS011;34352;51.084;3.712;2022-09-02T04:40:39;16.45;;;9.75;;
48574;SDS011;34352;51.084;3.712;2022-09-02T04:43:06;20.60;;;9.68;;
48574;SDS011;34352;51.084;3.712;2022-09-02T04:45:31;11.68;;;8.90;;
48574;SDS011;34352;51.084;3.712;2022-09-02T04:47:57;14.55;;;10.13;;
48574;SDS011;34352;51.084;3.712;2022-09-02T04:50:22;16.58;;;9.80;;
48574;SDS011;34352;51.084;3.712;2022-09-02T04:52:48;17.67;;;9.65;;
48574;SDS011;34352;51.084;3.712;2022-09-02T04:55:14;16.02;;;9.38;;
48574;SDS011;34352;51.084;3.712;2022-09-02T04:57:39;15.07;;;10.85;;
48574;SDS011;34352;51.084;3.712;2022-09-02T05:00:06;16.83;;;9.45;;
48574;SDS011;34352;51.084;3.712;2022-09-02T05:02:33;20.27;;;10.40;;
48574;SDS011;34352;51.084;3.712;2022-09-02T05:04:58;21.42;;;10.65;;
48574;SDS011;34352;51.084;3.712;2022-09-02T05:07:24;24.65;;;10.00;;
48574;SDS011;34352;51.084;3.712;2022-09-02T05:09:57;19.50;;;10.05;;
48574;SDS011;34352;51.084;3.712;2022-09-02T05:12:23;15.80;;;10.20;;
48574;SDS011;34352;51.084;3.712;2022-09-02T05:14:51;22.23;;;9.35;;
48574;SDS011;34352;51.084;3.712;2022-09-02T05:17:17;21.98;;;10.55;;
48574;SDS011;34352;51.084;3.712;2022-09-02T05:19:43;34.13;;;10.32;;
48574;SDS011;34352;51.084;3.712;2022-09-02T05:22:08;30.05;;;10.82;;
48574;SDS011;34352;51.084;3.712;2022-09-02T05:24:34;27.88;;;10.38;;
48574;SDS011;34352;51.084;3.712;2022-09-02T05:27:00;21.08;;;10.65;;
48574;SDS011;34352;51.084;3.712;2022-09-02T05:29:25;20.85;;;10.32;;
48574;SDS011;34352;51.084;3.712;2022-09-02T05:31:51;25.40;;;11.20;;
48574;SDS011;34352;51.084;3.712;2022-09-02T05:34:17;17.20;;;9.82;;
48574;SDS011;34352;51.084;3.712;2022-09-02T05:36:45;21.63;;;10.25;;
48574;SDS011;34352;51.084;3.712;2022-09-02T05:39:12;20.48;;;10.60;;
48574;SDS011;34352;51.084;3.712;2022-09-02T05:41:37;15.02;;;10.27;;
48574;SDS011;34352;51.084;3.712;2022-09-02T05:44:04;21.17;;;11.00;;
48574;SDS011;34352;51.084;3.712;2022-09-02T05:46:31;16.90;;;9.98;;
48574;SDS011;34352;51.084;3.712;2022-09-02T05:48:57;13.45;;;9.52;;
48574;SDS011;34352;51.084;3.712;2022-09-02T05:51:45;14.10;;;10.13;;
48574;SDS011;34352;51.084;3.712;2022-09-02T05:54:17;15.98;;;9.18;;
48574;SDS011;34352;51.084;3.712;2022-09-02T05:56:50;15.00;;;9.45;;
48574;SDS011;34352;51.084;3.712;2022-09-02T05:59:18;21.77;;;9.90;;
48574;SDS011;34352;51.084;3.712;2022-09-02T06:01:45;18.75;;;9.75;;
48574;SDS011;34352;51.084;3.712;2022-09-02T06:04:11;17.92;;;9.32;;
48574;SDS011;34352;51.084;3.712;2022-09-02T06:06:38;17.48;;;9.82;;
48574;SDS011;34352;51.084;3.712;2022-09-02T06:09:05;14.80;;;10.15;;
48574;SDS011;34352;51.084;3.712;2022-09-02T06:11:32;12.63;;;9.48;;
48574;SDS011;34352;51.084;3.712;2022-09-02T06:13:58;16.80;;;10.18;;
48574;SDS011;34352;51.084;3.712;2022-09-02T06:16:24;15.65;;;10.00;;
48574;SDS011;34352;51.084;3.712;2022-09-02T06:18:51;24.88;;;10.73;;
48574;SDS011;34352;51.084;3.712;2022-09-02T06:21:17;18.27;;;10.27;;
48574;SDS011;34352;51.084;3.712;2022-09-02T06:23:45;26.13;;;10.63;;
48574;SDS011;34352;51.084;3.712;2022-09-02T06:26:12;21.83;;;10.98;;
48574;SDS011;34352;51.084;3.712;2022-09-02T06:28:39;21.90;;;11.20;;
48574;SDS011;34352;51.084;3.712;2022-09-02T06:31:15;24.52;;;11.05;;
48574;SDS011;34352;51.084;3.712;2022-09-02T06:33:47;21.80;;;10.50;;
48574;SDS011;34352;51.084;3.712;2022-09-02T06:36:16;18.92;;;10.00;;
48574;SDS011;34352;51.084;3.712;2022-09-02T06:38:43;17.25;;;10.02;;
48574;SDS011;34352;51.084;3.712;2022-09-02T06:41:10;18.35;;;9.88;;
48574;SDS011;34352;51.084;3.712;2022-09-02T06:43:38;15.63;;;9.70;;
48574;SDS011;34352;51.084;3.712;2022-09-02T06:46:04;17.40;;;10.40;;
48574;SDS011;34352;51.084;3.712;2022-09-02T06:48:30;15.38;;;9.48;;
48574;SDS011;34352;51.084;3.712;2022-09-02T06:50:56;18.08;;;9.43;;
48574;SDS011;34352;51.084;3.712;2022-09-02T06:53:22;24.83;;;10.00;;
48574;SDS011;34352;51.084;3.712;2022-09-02T06:55:48;20.90;;;9.82;;
48574;SDS011;34352;51.084;3.712;2022-09-02T06:58:14;14.43;;;9.73;;
48574;SDS011;34352;51.084;3.712;2022-09-02T07:00:41;20.13;;;9.50;;
48574;SDS011;34352;51.084;3.712;2022-09-02T07:03:08;17.45;;;10.18;;
48574;SDS011;34352;51.084;3.712;2022-09-02T07:06:03;20.27;;;9.15;;
48574;SDS011;34352;51.084;3.712;2022-09-02T07:08:35;16.50;;;8.77;;
48574;SDS011;34352;51.084;3.712;2022-09-02T07:11:02;14.75;;;8.77;;
48574;SDS011;34352;51.084;3.712;2022-09-02T07:13:29;13.68;;;9.00;;
48574;SDS011;34352;51.084;3.712;2022-09-02T07:15:55;13.80;;;9.35;;
48574;SDS011;34352;51.084;3.712;2022-09-02T07:18:21;15.00;;;9.05;;
48574;SDS011;34352;51.084;3.712;2022-09-02T07:20:46;13.95;;;8.90;;
48574;SDS011;34352;51.084;3.712;2022-09-02T07:23:13;12.38;;;8.82;;
48574;SDS011;34352;51.084;3.712;2022-09-02T07:25:39;16.80;;;8.82;;
48574;SDS011;34352;51.084;3.712;2022-09-02T07:28:08;12.57;;;8.55;;
48574;SDS011;34352;51.084;3.712;2022-09-02T07:30:35;13.60;;;8.15;;
48574;SDS011;34352;51.084;3.712;2022-09-02T07:33:01;16.55;;;8.80;;
48574;SDS011;34352;51.084;3.712;2022-09-02T07:35:27;11.57;;;7.38;;
48574;SDS011;34352;51.084;3.712;2022-09-02T07:37:53;16.63;;;8.32;;
48574;SDS011;34352;51.084;3.712;2022-09-02T07:40:20;15.70;;;7.90;;
48574;SDS011;34352;51.084;3.712;2022-09-02T07:42:46;9.77;;;7.68;;
48574;SDS011;34352;51.084;3.712;2022-09-02T07:45:12;13.70;;;7.05;;
48574;SDS011;34352;51.084;3.712;2022-09-02T07:47:38;13.45;;;7.75;;
48574;SDS011;34352;51.084;3.712;2022-09-02T07:50:04;9.35;;;7.93;;
48574;SDS011;34352;51.084;3.712;2022-09-02T07:52:30;13.90;;;7.93;;
48574;SDS011;34352;51.084;3.712;2022-09-02T07:54:56;12.35;;;7.55;;
48574;SDS011;34352;51.084;3.712;2022-09-02T07:57:22;8.38;;;7.10;;
48574;SDS011;34352;51.084;3.712;2022-09-02T07:59:48;9.23;;;7.07;;
48574;SDS011;34352;51.084;3.712;2022-09-02T08:02:14;10.00;;;6.85;;
48574;SDS011;34352;51.084;3.712;2022-09-02T08:04:41;10.60;;;7.03;;
48574;SDS011;34352;51.084;3.712;2022-09-02T08:07:08;10.30;;;6.60;;
48574;SDS011;34352;51.084;3.712;2022-09-02T08:09:35;11.07;;;6.70;;
48574;SDS011;34352;51.084;3.712;2022-09-02T08:12:01;13.43;;;6.70;;
48574;SDS011;34352;51.084;3.712;2022-09-02T08:14:27;11.13;;;6.93;;
48574;SDS011;34352;51.084;3.712;2022-09-02T08:16:54;10.65;;;6.40;;
48574;SDS011;34352;51.084;3.712;2022-09-02T08:19:20;13.65;;;6.70;;
48574;SDS011;34352;51.084;3.712;2022-09-02T08:21:47;14.10;;;6.65;;
48574;SDS011;34352;51.084;3.712;2022-09-02T08:24:12;8.27;;;6.65;;
48574;SDS011;34352;51.084;3.712;2022-09-02T08:26:38;9.90;;;6.65;;
48574;SDS011;34352;51.084;3.712;2022-09-02T08:29:04;10.32;;;6.43;;
48574;SDS011;34352;51.084;3.712;2022-09-02T08:31:31;12.15;;;6.90;;
48574;SDS011;34352;51.084;3.712;2022-09-02T08:33:58;10.38;;;6.53;;
48574;SDS011;34352;51.084;3.712;2022-09-02T08:36:24;8.05;;;5.95;;
48574;SDS011;34352;51.084;3.712;2022-09-02T08:38:50;9.38;;;5.97;;
48574;SDS011;34352;51.084;3.712;2022-09-02T08:41:19;9.40;;;5.82;;
48574;SDS011;34352;51.084;3.712;2022-09-02T08:43:54;8.95;;;6.15;;
48574;SDS011;34352;51.084;3.712;2022-09-02T08:46:23;9.90;;;6.18;;
48574;SDS011;34352;51.084;3.712;2022-09-02T08:51:21;10.55;;;6.35;;
48574;SDS011;34352;51.084;3.712;2022-09-02T08:54:07;11.98;;;6.43;;
48574;SDS011;34352;51.084;3.712;2022-09-02T08:56:41;8.57;;;6.20;;
48574;SDS011;34352;51.084;3.712;2022-09-02T08:59:06;10.68;;;6.10;;
48574;SDS011;34352;51.084;3.712;2022-09-02T09:18:00;15.70;;;6.50;;
48574;SDS011;34352;51.084;3.712;2022-09-02T09:20:47;9.77;;;6.18;;
48574;SDS011;34352;51.084;3.712;2022-09-02T09:25:45;10.48;;;5.95;;
48574;SDS011;34352;51.084;3.712;2022-09-02T09:28:13;17.38;;;5.90;;
48574;SDS011;34352;51.084;3.712;2022-09-02T09:30:38;8.43;;;5.70;;
48574;SDS011;34352;51.084;3.712;2022-09-02T09:33:04;7.90;;;5.55;;
48574;SDS011;34352;51.084;3.712;2022-09-02T09:35:46;10.05;;;6.00;;
48574;SDS011;34352;51.084;3.712;2022-09-02T09:38:27;10.10;;;6.00;;
48574;SDS011;34352;51.084;3.712;2022-09-02T09:41:28;8.07;;;5.43;;
48574;SDS011;34352;51.084;3.712;2022-09-02T09:43:48;7.30;;;5.40;;
48574;SDS011;34352;51.084;3.712;2022-09-02T09:46:19;8.00;;;6.18;;
48574;SDS011;34352;51.084;3.712;2022-09-02T09:48:51;6.63;;;5.45;;
48574;SDS011;34352;51.084;3.712;2022-09-02T09:51:17;7.10;;;4.85;;
48574;SDS011;34352;51.084;3.712;2022-09-02T09:53:43;15.45;;;5.40;;
48574;SDS011;34352;51.084;3.712;2022-09-02T10:03:41;6.82;;;5.10;;
48574;SDS011;34352;51.084;3.712;2022-09-02T10:06:24;8.65;;;5.32;;
48574;SDS011;34352;51.084;3.712;2022-09-02T10:11:29;6.32;;;4.82;;
48574;SDS011;34352;51.084;3.712;2022-09-02T10:16:45;6.03;;;4.63;;
48574;SDS011;34352;51.084;3.712;2022-09-02T10:22:19;9.45;;;4.65;;
48574;SDS011;34352;51.084;3.712;2022-09-02T10:27:45;7.53;;;5.63;;
48574;SDS011;34352;51.084;3.712;2022-09-02T10:30:43;6.43;;;5.18;;
48574;SDS011;34352;51.084;3.712;2022-09-02T10:36:19;5.57;;;4.47;;
48574;SDS011;34352;51.084;3.712;2022-09-02T10:38:52;6.90;;;5.07;;
48574;SDS011;34352;51.084;3.712;2022-09-02T10:44:02;9.85;;;5.20;;
48574;SDS011;34352;51.084;3.712;2022-09-02T10:47:01;6.95;;;4.75;;
48574;SDS011;34352;51.084;3.712;2022-09-02T10:55:15;7.50;;;4.57;;
48574;SDS011;34352;51.084;3.712;2022-09-02T10:58:03;6.53;;;4.18;;
48574;SDS011;34352;51.084;3.712;2022-09-02T11:00:34;6.97;;;4.50;;
48574;SDS011;34352;51.084;3.712;2022-09-02T11:03:12;4.57;;;4.18;;
48574;SDS011;34352;51.084;3.712;2022-09-02T11:08:35;5.85;;;4.10;;
48574;SDS011;34352;51.084;3.712;2022-09-02T11:11:09;6.43;;;4.50;;
48574;SDS011;34352;51.084;3.712;2022-09-02T11:16:40;6.57;;;4.90;;
48574;SDS011;34352;51.084;3.712;2022-09-02T11:19:13;7.35;;;4.30;;
48574;SDS011;34352;51.084;3.712;2022-09-02T11:24:12;5.85;;;4.72;;
48574;SDS011;34352;51.084;3.712;2022-09-02T11:26:52;5.90;;;4.15;;
48574;SDS011;34352;51.084;3.712;2022-09-02T11:29:55;8.30;;;4.10;;
48574;SDS011;34352;51.084;3.712;2022-09-02T11:32:41;5.88;;;4.32;;
48574;SDS011;34352;51.084;3.712;2022-09-02T11:35:24;6.88;;;4.63;;
48574;SDS011;34352;51.084;3.712;2022-09-02T11:37:56;4.95;;;4.40;;
48574;SDS011;34352;51.084;3.712;2022-09-02T11:40:27;4.95;;;4.45;;
48574;SDS011;34352;51.084;3.712;2022-09-02T11:46:22;10.80;;;4.43;;
48574;SDS011;34352;51.084;3.712;2022-09-02T11:51:57;5.32;;;4.60;;
48574;SDS011;34352;51.084;3.712;2022-09-02T11:54:30;6.78;;;4.47;;
48574;SDS011;34352;51.084;3.712;2022-09-02T11:57:04;8.13;;;4.32;;
48574;SDS011;34352;51.084;3.712;2022-09-02T12:02:35;6.82;;;4.25;;
48574;SDS011;34352;51.084;3.712;2022-09-02T12:05:43;9.00;;;4.60;;
48574;SDS011;34352;51.084;3.712;2022-09-02T12:08:10;9.35;;;4.90;;
48574;SDS011;34352;51.084;3.712;2022-09-02T12:13:08;5.70;;;4.50;;
48574;SDS011;34352;51.084;3.712;2022-09-02T12:15:36;5.40;;;4.60;;
48574;SDS011;34352;51.084;3.712;2022-09-02T12:18:26;5.35;;;4.65;;
48574;SDS011;34352;51.084;3.712;2022-09-02T12:26:15;7.53;;;4.70;;
48574;SDS011;34352;51.084;3.712;2022-09-02T12:28:42;9.93;;;4.88;;
48574;SDS011;34352;51.084;3.712;2022-09-02T12:31:16;6.45;;;4.60;;
48574;SDS011;34352;51.084;3.712;2022-09-02T12:36:59;7.00;;;4.60;;
48574;SDS011;34352;51.084;3.712;2022-09-02T12:42:02;6.78;;;4.18;;
48574;SDS011;34352;51.084;3.712;2022-09-02T12:53:32;5.10;;;4.32;;
48574;SDS011;34352;51.084;3.712;2022-09-02T12:56:00;7.13;;;4.63;;
48574;SDS011;34352;51.084;3.712;2022-09-02T12:58:55;6.97;;;4.28;;
48574;SDS011;34352;51.084;3.712;2022-09-02T13:06:58;5.63;;;4.30;;
48574;SDS011;34352;51.084;3.712;2022-09-02T13:14:57;4.60;;;4.10;;
48574;SDS011;34352;51.084;3.712;2022-09-02T13:17:28;6.38;;;4.10;;
48574;SDS011;34352;51.084;3.712;2022-09-02T13:33:21;5.70;;;3.70;;
48574;SDS011;34352;51.084;3.712;2022-09-02T13:35:52;6.00;;;4.18;;
48574;SDS011;34352;51.084;3.712;2022-09-02T13:38:21;5.25;;;3.80;;
48574;SDS011;34352;51.084;3.712;2022-09-02T13:40:48;7.90;;;4.28;;
48574;SDS011;34352;51.084;3.712;2022-09-02T13:43:15;5.40;;;4.18;;
48574;SDS011;34352;51.084;3.712;2022-09-02T13:45:44;6.30;;;4.20;;
48574;SDS011;34352;51.084;3.712;2022-09-02T13:50:57;4.95;;;3.67;;
48574;SDS011;34352;51.084;3.712;2022-09-02T13:53:43;5.57;;;4.00;;
48574;SDS011;34352;51.084;3.712;2022-09-02T13:56:12;4.47;;;3.95;;
48574;SDS011;34352;51.084;3.712;2022-09-02T13:58:40;4.20;;;3.38;;
48574;SDS011;34352;51.084;3.712;2022-09-02T14:04:03;5.97;;;4.28;;
48574;SDS011;34352;51.084;3.712;2022-09-02T14:06:39;5.43;;;3.80;;
48574;SDS011;34352;51.084;3.712;2022-09-02T14:12:04;4.78;;;3.85;;
48574;SDS011;34352;51.084;3.712;2022-09-02T14:14:31;4.90;;;3.70;;
48574;SDS011;34352;51.084;3.712;2022-09-02T14:17:18;6.47;;;3.90;;
48574;SDS011;34352;51.084;3.712;2022-09-02T14:19:47;5.50;;;3.40;;
48574;SDS011;34352;51.084;3.712;2022-09-02T14:22:23;5.57;;;4.00;;
48574;SDS011;34352;51.084;3.712;2022-09-02T14:24:53;4.03;;;3.60;;
48574;SDS011;34352;51.084;3.712;2022-09-02T14:27:21;4.15;;;3.75;;
48574;SDS011;34352;51.084;3.712;2022-09-02T14:29:55;4.40;;;3.85;;
48574;SDS011;34352;51.084;3.712;2022-09-02T14:32:23;4.15;;;3.75;;
48574;SDS011;34352;51.084;3.712;2022-09-02T14:35:09;5.20;;;3.90;;
48574;SDS011;34352;51.084;3.712;2022-09-02T14:37:48;4.47;;;3.90;;
48574;SDS011;34352;51.084;3.712;2022-09-02T14:40:16;4.70;;;4.00;;
48574;SDS011;34352;51.084;3.712;2022-09-02T14:42:44;5.32;;;4.20;;
48574;SDS011;34352;51.084;3.712;2022-09-02T14:45:22;6.77;;;4.03;;
48574;SDS011;34352;51.084;3.712;2022-09-02T14:47:53;4.18;;;3.85;;
48574;SDS011;34352;51.084;3.712;2022-09-02T14:50:21;4.43;;;4.03;;
48574;SDS011;34352;51.084;3.712;2022-09-02T14:52:52;4.50;;;4.10;;
48574;SDS011;34352;51.084;3.712;2022-09-02T14:55:43;6.07;;;4.05;;
48574;SDS011;34352;51.084;3.712;2022-09-02T14:58:11;5.30;;;3.70;;
48574;SDS011;34352;51.084;3.712;2022-09-02T15:00:38;6.47;;;4.40;;
48574;SDS011;34352;51.084;3.712;2022-09-02T15:03:04;5.22;;;3.67;;
48574;SDS011;34352;51.084;3.712;2022-09-02T15:05:31;4.28;;;3.95;;
48574;SDS011;34352;51.084;3.712;2022-09-02T15:07:57;6.38;;;4.10;;
48574;SDS011;34352;51.084;3.712;2022-09-02T15:10:22;4.30;;;3.90;;
48574;SDS011;34352;51.084;3.712;2022-09-02T15:12:49;4.00;;;3.40;;
48574;SDS011;34352;51.084;3.712;2022-09-02T15:15:16;4.65;;;4.25;;
48574;SDS011;34352;51.084;3.712;2022-09-02T15:17:42;5.93;;;4.10;;
48574;SDS011;34352;51.084;3.712;2022-09-02T15:20:08;5.47;;;3.70;;
48574;SDS011;34352;51.084;3.712;2022-09-02T15:22:34;7.07;;;3.72;;
48574;SDS011;34352;51.084;3.712;2022-09-02T15:25:00;5.28;;;3.85;;
48574;SDS011;34352;51.084;3.712;2022-09-02T15:27:25;9.50;;;3.97;;
48574;SDS011;34352;51.084;3.712;2022-09-02T15:29:51;5.13;;;3.70;;
48574;SDS011;34352;51.084;3.712;2022-09-02T15:32:17;5.90;;;3.97;;
48574;SDS011;34352;51.084;3.712;2022-09-02T15:34:43;5.38;;;3.67;;
48574;SDS011;34352;51.084;3.712;2022-09-02T15:37:09;6.90;;;4.43;;
48574;SDS011;34352;51.084;3.712;2022-09-02T15:39:35;5.70;;;3.72;;
48574;SDS011;34352;51.084;3.712;2022-09-02T15:42:01;4.15;;;3.75;;
48574;SDS011;34352;51.084;3.712;2022-09-02T15:44:27;5.30;;;3.90;;
48574;SDS011;34352;51.084;3.712;2022-09-02T15:46:56;6.03;;;4.10;;
48574;SDS011;34352;51.084;3.712;2022-09-02T15:49:22;4.07;;;3.75;;
48574;SDS011;34352;51.084;3.712;2022-09-02T15:51:48;4.38;;;3.85;;
48574;SDS011;34352;51.084;3.712;2022-09-02T15:54:16;4.20;;;3.78;;
48574;SDS011;34352;51.084;3.712;2022-09-02T15:56:44;6.28;;;4.50;;
48574;SDS011;34352;51.084;3.712;2022-09-02T15:59:14;4.78;;;4.35;;
48574;SDS011;34352;51.084;3.712;2022-09-02T16:01:45;5.30;;;4.57;;
48574;SDS011;34352;51.084;3.712;2022-09-02T16:04:22;5.78;;;4.72;;
48574;SDS011;34352;51.084;3.712;2022-09-02T16:06:49;7.05;;;4.85;;
48574;SDS011;34352;51.084;3.712;2022-09-02T16:09:17;6.82;;;5.00;;
48574;SDS011;34352;51.084;3.712;2022-09-02T16:11:44;6.00;;;4.97;;
48574;SDS011;34352;51.084;3.712;2022-09-02T16:14:14;6.60;;;4.53;;
48574;SDS011;34352;51.084;3.712;2022-09-02T16:16:40;6.57;;;4.53;;
48574;SDS011;34352;51.084;3.712;2022-09-02T16:19:06;4.80;;;4.40;;
48574;SDS011;34352;51.084;3.712;2022-09-02T16:21:32;6.95;;;4.60;;
48574;SDS011;34352;51.084;3.712;2022-09-02T16:23:58;6.55;;;4.72;;
48574;SDS011;34352;51.084;3.712;2022-09-02T16:26:25;7.97;;;4.72;;
48574;SDS011;34352;51.084;3.712;2022-09-02T16:28:53;4.95;;;3.97;;
48574;SDS011;34352;51.084;3.712;2022-09-02T16:31:24;5.30;;;4.80;;
48574;SDS011;34352;51.084;3.712;2022-09-02T16:33:56;8.45;;;4.85;;
48574;SDS011;34352;51.084;3.712;2022-09-02T16:38:50;5.63;;;4.57;;
48574;SDS011;34352;51.084;3.712;2022-09-02T16:43:52;8.48;;;4.78;;
48574;SDS011;34352;51.084;3.712;2022-09-02T16:46:22;5.53;;;4.63;;
48574;SDS011;34352;51.084;3.712;2022-09-02T16:48:50;9.52;;;4.72;;
48574;SDS011;34352;51.084;3.712;2022-09-02T16:51:17;8.88;;;4.65;;
48574;SDS011;34352;51.084;3.712;2022-09-02T16:53:43;5.50;;;5.00;;
48574;SDS011;34352;51.084;3.712;2022-09-02T16:56:12;12.13;;;5.20;;
48574;SDS011;34352;51.084;3.712;2022-09-02T16:58:39;5.30;;;4.80;;
48574;SDS011;34352;51.084;3.712;2022-09-02T17:01:05;5.28;;;4.78;;
48574;SDS011;34352;51.084;3.712;2022-09-02T17:03:32;5.88;;;5.28;;